Time;durP1;ratioP1;P1;durP2;ratioP2;P2;SDS_P1;SDS_P2;PMS_P1;PMS_P2;Temp;Humidity;BMP_temperature;BMP_pressure;BME280_temperature;BME280_humidity;BME280_pressure;Samples;Min_cycle;Max_cycle;Signal;HPM_P1;HPM_P2
2021/03/30 00:02:28;;;;;;;26.02;13.13;;;;;;;1.49;100.00;102467.25;1815149;79;21135;-90
2021/03/30 00:04:56;;;;;;;20.02;10.40;;;;;;;1.49;100.00;102468.09;1815072;77;21476;-88
2021/03/30 00:07:56;;;;;;;16.70;9.83;;;;;;;1.47;100.00;102470.25;1815097;77;21125;-89
2021/03/30 00:10:29;;;;;;;17.67;9.98;;;;;;;1.47;100.00;102464.70;1815192;78;21131;-90
2021/03/30 00:12:57;;;;;;;15.58;9.53;;;;;;;1.44;100.00;102463.87;1810877;77;21175;-90
2021/03/30 00:15:26;;;;;;;22.75;11.08;;;;;;;1.38;100.00;102466.89;1815162;78;21100;-90
2021/03/30 00:18:29;;;;;;;20.12;9.65;;;;;;;1.38;100.00;102469.45;1807573;77;21355;-90
2021/03/30 00:20:57;;;;;;;16.87;9.20;;;;;;;1.34;100.00;102468.20;1782808;79;21527;-89
2021/03/30 00:23:32;;;;;;;22.70;8.38;;;;;;;1.34;100.00;102473.33;1782872;79;21104;-89
2021/03/30 00:26:35;;;;;;;11.93;7.62;;;;;;;1.34;100.00;102469.06;1774300;79;21131;-89
2021/03/30 00:29:05;;;;;;;;;;;;;;;1.35;100.00;102477.61;1777703;79;21121;-89
2021/03/30 00:31:35;;;;;;;15.63;8.23;;;;;;;1.35;100.00;102469.91;1774383;80;21381;-90
2021/03/30 00:34:04;;;;;;;13.75;7.67;;;;;;;1.36;100.00;102467.31;1774325;79;21130;-89
2021/03/30 00:36:32;;;;;;;13.25;8.30;;;;;;;1.31;100.00;102469.52;1774302;80;21135;-89
2021/03/30 00:39:01;;;;;;;12.13;8.38;;;;;;;1.25;100.00;102472.53;1788692;78;21647;-89
2021/03/30 00:41:41;;;;;;;17.85;9.48;;;;;;;1.22;100.00;102468.72;1800623;78;21150;-89
2021/03/30 00:44:41;;;;;;;15.05;9.48;;;;;;;1.22;100.00;102478.98;1800528;78;22226;-90
2021/03/30 00:51:02;;;;;;;14.53;8.75;;;;;;;1.17;100.00;102475.57;1800491;79;21173;-89
2021/03/30 00:53:50;;;;;;;14.50;10.13;;;;;;;1.18;100.00;102468.74;1820845;78;27759;-88
2021/03/30 00:56:32;;;;;;;15.60;9.55;;;;;;;1.10;100.00;102479.03;1795657;79;21136;-90
2021/03/30 00:59:02;;;;;;;16.07;9.33;;;;;;;1.12;100.00;102477.77;1769800;78;22270;-90
2021/03/30 01:01:31;;;;;;;12.95;8.88;;;;;;;1.12;100.00;102479.89;1769059;79;21179;-89
2021/03/30 01:03:59;;;;;;;14.20;9.65;;;;;;;1.14;100.00;102485.00;1791360;79;21112;-89
2021/03/30 01:06:31;;;;;;;12.88;8.48;;;;;;;1.12;100.00;102481.17;1774105;78;21133;-89
2021/03/30 01:09:16;;;;;;;13.45;7.87;;;;;;;1.11;100.00;102485.88;1767707;79;21088;-90
2021/03/30 01:12:21;;;;;;;74.85;39.53;;;;;;;1.14;100.00;102491.42;1794996;79;21068;-89
2021/03/30 01:15:28;;;;;;;48.45;24.57;;;;;;;1.16;100.00;102498.69;1797941;79;21171;-90
2021/03/30 01:18:30;;;;;;;19.52;10.58;;;;;;;1.11;100.00;102496.14;1769170;79;21087;-90
2021/03/30 01:21:27;;;;;;;;;;;;;;;1.02;100.00;102498.75;1768913;80;21564;-89
2021/03/30 01:24:30;;;;;;;18.67;9.83;;;;;;;0.92;100.00;102496.22;1766417;81;20318;-89
2021/03/30 01:27:45;;;;;;;16.02;9.10;;;;;;;0.85;100.00;102489.41;1766280;80;21380;-90
2021/03/30 01:30:44;;;;;;;16.50;9.90;;;;;;;0.76;100.00;102493.33;1766184;80;21128;-89
2021/03/30 01:33:18;;;;;;;16.50;9.28;;;;;;;0.67;100.00;102495.48;1766389;81;21576;-89
2021/03/30 01:35:54;;;;;;;14.68;9.90;;;;;;;0.57;100.00;102494.66;1760890;81;21132;-89
2021/03/30 01:38:30;;;;;;;16.62;9.78;;;;;;;0.52;100.00;102495.53;1766405;81;21127;-90
2021/03/30 01:41:01;;;;;;;17.40;9.80;;;;;;;0.47;100.00;102501.95;1766264;81;21364;-89
2021/03/30 01:43:33;;;;;;;15.55;9.45;;;;;;;0.39;100.00;102505.83;1766351;80;21153;-89
2021/03/30 01:46:08;;;;;;;12.37;8.48;;;;;;;0.32;100.00;102507.98;1766329;80;21152;-89
2021/03/30 01:48:42;;;;;;;16.17;9.58;;;;;;;0.28;100.00;102508.83;1766268;80;21132;-90
2021/03/30 01:51:13;;;;;;;15.65;9.83;;;;;;;0.28;100.00;102508.83;1766436;81;21143;-90
2021/03/30 01:53:44;;;;;;;16.62;9.65;;;;;;;0.28;100.00;102514.79;1780600;80;21616;-90
2021/03/30 01:56:15;;;;;;;;;;;;;;;0.30;100.00;102520.77;1785999;80;21092;-90
2021/03/30 01:58:44;;;;;;;17.67;10.30;;;;;;;0.27;100.00;102516.08;1783292;80;20553;-90
2021/03/30 02:01:14;;;;;;;13.13;9.45;;;;;;;0.28;100.00;102524.20;1783260;80;21167;-90
2021/03/30 02:03:44;;;;;;;20.30;10.95;;;;;;;0.19;100.00;102520.36;1769472;80;21152;-90
2021/03/30 02:06:19;;;;;;;16.45;10.55;;;;;;;0.10;100.00;102519.95;1768655;80;21367;-90
2021/03/30 02:08:47;;;;;;;14.85;10.18;;;;;;;0.09;100.00;102525.49;1765693;81;21122;-89
2021/03/30 02:11:55;;;;;;;15.30;10.40;;;;;;;0.05;100.00;102523.80;1765741;81;21552;-89
2021/03/30 02:14:23;;;;;;;15.08;9.88;;;;;;;0.03;100.00;102515.25;1765507;81;21222;-89
2021/03/30 02:17:06;;;;;;;15.88;9.93;;;;;;;-0.05;100.00;102516.55;1786752;78;21604;-88
2021/03/30 02:19:46;;;;;;;19.30;11.18;;;;;;;-0.11;100.00;102523.38;1796706;79;21448;-89
2021/03/30 02:22:33;;;;;;;11.60;9.03;;;;;;;-0.15;100.00;102521.23;1794078;79;21137;-90
2021/03/30 02:25:04;;;;;;;16.85;9.88;;;;;;;-0.18;100.00;102523.38;1797042;79;21148;-90
2021/03/30 02:27:41;;;;;;;15.78;10.18;;;;;;;-0.16;100.00;102522.09;1794032;79;21140;-90
2021/03/30 02:30:15;;;;;;;16.23;11.25;;;;;;;-0.17;100.00;102520.38;1797000;79;21109;-90
2021/03/30 02:32:46;;;;;;;17.92;10.68;;;;;;;-0.21;100.00;102526.37;1769883;79;21476;-89
2021/03/30 02:35:20;;;;;;;14.80;10.48;;;;;;;-0.21;100.00;102527.20;1797274;79;21108;-90
2021/03/30 02:37:50;;;;;;;17.65;10.40;;;;;;;-0.19;100.00;102525.51;1793614;78;21160;-89
2021/03/30 02:40:48;;;;;;;17.10;11.08;;;;;;;-0.15;100.00;102528.92;1775195;79;21564;-90
2021/03/30 02:43:19;;;;;;;14.98;10.15;;;;;;;-0.21;100.00;102530.20;1793770;78;21064;-90
2021/03/30 02:45:50;;;;;;;14.18;10.10;;;;;;;-0.32;100.00;102530.17;1797107;79;21168;-90
2021/03/30 02:48:20;;;;;;;15.47;10.87;;;;;;;-0.37;100.00;102533.16;1794508;79;21584;-90
2021/03/30 02:50:51;;;;;;;16.60;10.60;;;;;;;-0.39;100.00;102544.69;1797306;78;28679;-89
2021/03/30 02:53:20;;;;;;;17.40;10.90;;;;;;;-0.42;100.00;102537.43;1797340;79;21167;-90
2021/03/30 02:55:52;;;;;;;17.60;11.90;;;;;;;-0.46;100.00;102542.97;1786277;79;21128;-90
2021/03/30 02:58:21;;;;;;;20.10;11.90;;;;;;;-0.52;100.00;102546.80;1791999;79;21359;-89
2021/03/30 03:00:58;;;;;;;20.68;12.47;;;;;;;-0.56;100.00;102551.47;1785599;79;21575;-89
2021/03/30 03:03:32;;;;;;;21.62;12.40;;;;;;;-0.62;100.00;102547.63;1766807;78;21104;-89
2021/03/30 03:06:09;;;;;;;19.30;12.13;;;;;;;-0.64;100.00;102549.75;1767240;79;21144;-88
2021/03/30 03:12:07;;;;;;;14.70;10.43;;;;;;;-0.68;100.00;102554.41;1774441;79;21588;-88
2021/03/30 03:15:05;;;;;;;19.13;10.90;;;;;;;-0.69;100.00;102559.13;1793366;78;21116;-89
2021/03/30 03:24:52;;;;;;;45.73;19.07;;;;;;;-0.47;100.00;102563.02;1829882;78;21572;-90
2021/03/30 03:27:20;;;;;;;17.37;11.57;;;;;;;-0.44;100.00;102562.16;1759112;81;21383;-90
2021/03/30 03:29:56;;;;;;;21.10;11.97;;;;;;;-0.45;100.00;102570.28;1768574;81;21144;-90
2021/03/30 03:32:32;;;;;;;17.10;11.97;;;;;;;-0.47;100.00;102568.14;1829752;78;21160;-88
2021/03/30 03:35:02;;;;;;;16.85;11.33;;;;;;;-0.47;100.00;102573.25;1759069;81;21133;-89
2021/03/30 03:37:31;;;;;;;21.00;13.35;;;;;;;-0.50;100.00;102570.27;1757220;81;21188;-89
2021/03/30 03:40:00;;;;;;;19.50;13.08;;;;;;;-0.50;100.00;102577.08;1688250;83;21385;-89
2021/03/30 03:42:29;;;;;;;25.92;15.78;;;;;;;-0.54;100.00;102577.49;1708665;84;21576;-89
2021/03/30 03:44:57;;;;;;;25.02;16.07;;;;;;;-0.56;100.00;102576.63;1708596;84;21183;-89
2021/03/30 03:47:26;;;;;;;28.77;17.57;;;;;;;-0.53;100.00;102574.09;1705358;82;21152;-89
2021/03/30 03:50:05;;;;;;;50.17;22.27;;;;;;;-0.50;100.00;102579.63;1708625;82;21167;-89
2021/03/30 03:52:36;;;;;;;76.70;30.85;;;;;;;-0.50;100.00;102583.06;1722829;82;22425;-90
2021/03/30 03:55:10;;;;;;;25.27;14.47;;;;;;;-0.48;100.00;102586.90;1704001;83;21160;-89
2021/03/30 03:58:08;;;;;;;23.95;14.55;;;;;;;-0.51;100.00;102581.35;1667750;85;21158;-89
2021/03/30 04:00:37;;;;;;;40.73;20.32;;;;;;;-0.50;100.00;102586.03;1716332;83;21621;-89
2021/03/30 04:03:36;;;;;;;91.53;33.00;;;;;;;-0.44;100.00;102587.33;1713776;83;21124;-90
2021/03/30 04:06:15;;;;;;;173.22;56.13;;;;;;;-0.39;100.00;102594.61;1713651;82;21379;-89
2021/03/30 04:08:55;;;;;;;167.67;63.40;;;;;;;-0.27;100.00;102603.15;1706864;82;21144;-90
2021/03/30 04:11:24;;;;;;;58.55;26.27;;;;;;;-0.23;100.00;102598.48;1725081;82;21891;-89
2021/03/30 04:13:58;;;;;;;43.70;20.15;;;;;;;-0.21;100.00;102600.63;1734484;82;21168;-88
2021/03/30 04:16:27;;;;;;;26.07;13.85;;;;;;;-0.18;100.00;102598.92;1711103;82;21128;-89
2021/03/30 04:18:56;;;;;;;18.55;12.85;;;;;;;-0.12;100.00;102604.89;1711799;82;21439;-89
2021/03/30 04:21:32;;;;;;;17.62;12.05;;;;;;;-0.11;100.00;102610.02;1734459;82;21127;-89
2021/03/30 04:24:09;;;;;;;24.05;13.25;;;;;;;-0.07;100.00;102612.15;1701546;84;21136;-90
2021/03/30 04:26:39;;;;;;;17.45;12.43;;;;;;;-0.04;100.00;102613.01;1705811;81;21841;-88
2021/03/30 04:29:08;;;;;;;18.55;11.95;;;;;;;0.00;100.00;102620.30;1734243;82;21156;-89
2021/03/30 04:32:04;;;;;;;16.82;12.23;;;;;;;0.02;100.00;102616.45;1734566;82;22301;-89
2021/03/30 04:34:37;;;;;;;19.37;11.95;;;;;;;0.04;100.00;102622.44;1734231;81;21168;-89
2021/03/30 04:37:09;;;;;;;16.93;12.65;;;;;;;0.12;100.00;102625.86;1734362;82;21176;-88
2021/03/30 04:39:38;;;;;;;35.00;17.30;;;;;;;0.18;100.00;102624.98;1734394;82;21199;-89
2021/03/30 04:42:08;;;;;;;23.70;15.32;;;;;;;0.22;100.00;102629.28;1734551;82;21179;-88
2021/03/30 04:44:37;;;;;;;;;;;;;;;0.25;100.00;102631.82;1718741;81;21334;-89
2021/03/30 04:47:06;;;;;;;19.98;12.90;;;;;;;0.28;100.00;102633.12;1715556;82;20294;-88
2021/03/30 04:49:42;;;;;;;19.62;12.93;;;;;;;0.28;100.00;102636.52;1714726;82;21148;-88
2021/03/30 04:52:11;;;;;;;22.07;13.03;;;;;;;0.27;100.00;102636.13;1712932;82;21176;-88
2021/03/30 04:55:15;;;;;;;18.80;13.35;;;;;;;0.33;100.00;102636.97;1769233;79;21096;-90
2021/03/30 04:57:44;;;;;;;38.05;12.18;;;;;;;0.37;100.00;102636.09;1791419;79;21358;-92
2021/03/30 05:00:15;;;;;;;32.60;13.30;;;;;;;0.54;100.00;102632.27;1794994;78;21143;-91
2021/03/30 05:02:44;;;;;;;26.02;15.35;;;;;;;0.68;100.00;102633.10;1775028;79;21136;-91
2021/03/30 05:05:14;;;;;;;22.05;14.15;;;;;;;0.73;100.00;102635.66;1789102;79;21544;-91
2021/03/30 05:07:42;;;;;;;21.02;14.30;;;;;;;0.77;100.00;102636.06;1780735;79;21127;-91
2021/03/30 05:10:12;;;;;;;23.07;14.80;;;;;;;0.86;100.00;102637.34;1771408;79;21203;-91
2021/03/30 05:12:48;;;;;;;22.73;14.80;;;;;;;0.90;100.00;102644.19;1775138;78;21580;-92
2021/03/30 05:15:16;;;;;;;18.30;13.08;;;;;;;0.92;100.00;102635.20;1787658;79;21144;-91
2021/03/30 05:17:45;;;;;;;26.52;14.43;;;;;;;0.97;100.00;102632.63;1799151;79;21159;-91
2021/03/30 05:20:14;;;;;;;23.20;14.20;;;;;;;1.04;100.00;102631.30;1795931;79;21105;-91
2021/03/30 05:22:42;;;;;;;21.75;14.10;;;;;;;1.17;100.00;102633.84;1802903;78;22359;-92
2021/03/30 05:25:12;;;;;;;20.30;14.68;;;;;;;1.35;100.00;102643.19;1792223;79;21139;-91
2021/03/30 05:27:41;;;;;;;19.82;14.43;;;;;;;1.38;100.00;102636.33;1772976;79;21421;-92
2021/03/30 05:30:17;;;;;;;21.50;14.58;;;;;;;1.42;100.00;102638.45;1780106;79;21167;-92
2021/03/30 05:32:46;;;;;;;25.50;15.48;;;;;;;1.51;100.00;102635.84;1797582;79;21132;-92
2021/03/30 05:43:43;;;;;;;23.05;16.32;;;;;;;1.84;100.00;102634.41;1779187;79;21119;-86
2021/03/30 05:46:13;;;;;;;23.98;14.13;;;;;;;1.97;100.00;102637.72;1776287;79;21139;-88
2021/03/30 05:48:44;;;;;;;18.60;14.00;;;;;;;2.04;100.00;102630.42;1778724;79;21226;-88
2021/03/30 05:51:13;;;;;;;22.73;16.00;;;;;;;2.16;100.00;102636.74;1787083;79;21544;-88
2021/03/30 05:53:46;;;;;;;21.68;14.35;;;;;;;2.31;100.00;102634.50;1784259;78;21100;-88
2021/03/30 05:56:19;;;;;;;28.98;14.00;;;;;;;2.46;100.00;102636.06;1779107;79;21135;-88
2021/03/30 05:58:58;;;;;;;19.92;13.95;;;;;;;2.59;100.00;102629.09;1782953;79;21149;-88
2021/03/30 06:01:30;;;;;;;22.58;14.30;;;;;;;2.73;100.00;102633.25;1795853;77;21127;-87
2021/03/30 06:04:28;;;;;;;24.07;14.43;;;;;;;2.82;100.00;102634.03;1804712;79;22109;-88
2021/03/30 06:06:56;;;;;;;20.77;14.07;;;;;;;2.86;100.00;102637.42;1793933;79;21096;-88
2021/03/30 06:09:32;;;;;;;40.92;14.85;;;;;;;2.91;100.00;102640.79;1811378;77;21162;-88
2021/03/30 06:12:04;;;;;;;21.87;13.93;;;;;;;2.97;100.00;102645.86;1795740;79;21143;-88
2021/03/30 06:14:40;;;;;;;19.92;14.30;;;;;;;3.05;100.00;102644.51;1751607;80;21159;-88
2021/03/30 06:17:50;;;;;;;20.02;13.25;;;;;;;3.13;100.00;102649.14;1782055;80;21533;-88
2021/03/30 06:20:36;;;;;;;23.10;13.30;;;;;;;3.20;100.00;102651.64;1828589;77;21104;-88
2021/03/30 06:23:07;;;;;;;20.37;13.50;;;;;;;3.26;100.00;102651.56;1813351;77;21098;-88
2021/03/30 06:25:45;;;;;;;20.52;14.60;;;;;;;3.30;100.00;102642.49;1782046;80;21531;-88
2021/03/30 06:28:43;;;;;;;22.00;14.13;;;;;;;3.36;100.00;102645.44;1782087;80;21902;-88
2021/03/30 06:31:39;;;;;;;19.80;13.45;;;;;;;3.43;100.00;102649.64;1782040;80;21374;-88
2021/03/30 06:34:09;;;;;;;20.52;14.53;;;;;;;3.48;100.00;102649.13;1814601;77;21172;-88
2021/03/30 06:36:41;;;;;;;19.15;13.55;;;;;;;3.56;100.00;102649.50;1806778;78;21176;-88
2021/03/30 06:39:11;;;;;;;17.92;13.15;;;;;;;3.64;100.00;102647.67;1738204;81;21606;-88
2021/03/30 06:45:16;;;;;;;19.23;13.78;;;;;;;3.89;100.00;102651.17;1825826;76;22260;-88
2021/03/30 06:47:55;;;;;;;17.52;12.68;;;;;;;3.93;100.00;102651.11;1831335;78;21543;-88
2021/03/30 06:50:32;;;;;;;17.98;13.30;;;;;;;3.97;100.00;102654.94;1846498;77;21243;-88
2021/03/30 06:53:14;;;;;;;20.10;14.30;;;;;;;4.00;100.00;102653.17;1816881;77;21432;-88
2021/03/30 06:55:55;;;;;;;18.52;13.43;;;;;;;4.06;100.00;102654.81;1783293;79;20978;-89
2021/03/30 06:58:25;;;;;;;15.53;12.37;;;;;;;4.16;100.00;102656.80;1779258;80;21184;-89
2021/03/30 07:00:53;;;;;;;16.70;12.45;;;;;;;4.25;100.00;102651.50;1779195;80;21195;-88
2021/03/30 07:03:23;;;;;;;17.27;12.90;;;;;;;4.43;100.00;102656.80;1781484;78;21416;-88
2021/03/30 07:05:53;;;;;;;15.40;11.40;;;;;;;4.43;100.00;102656.80;1807117;77;21221;-89
2021/03/30 07:08:23;;;;;;;18.20;12.60;;;;;;;4.50;100.00;102657.10;1807496;79;21246;-88
2021/03/30 07:10:55;;;;;;;16.73;11.95;;;;;;;4.54;100.00;102652.31;1807481;79;21181;-88
2021/03/30 07:13:26;;;;;;;16.12;12.15;;;;;;;4.57;100.00;102655.28;1807307;79;21126;-89
2021/03/30 07:16:10;;;;;;;18.60;13.00;;;;;;;4.65;100.00;102657.71;1826098;77;22144;-89
2021/03/30 07:18:44;;;;;;;17.82;12.78;;;;;;;4.77;100.00;102657.97;1854327;77;21126;-88
2021/03/30 07:21:27;;;;;;;19.60;13.58;;;;;;;4.89;100.00;102665.47;1860167;77;21075;-88
2021/03/30 07:24:11;;;;;;;37.85;22.02;;;;;;;4.94;100.00;102668.81;1854807;77;21519;-88
2021/03/30 07:26:50;;;;;;;16.42;12.13;;;;;;;4.96;100.00;102659.31;1807044;78;21067;-88
2021/03/30 07:29:29;;;;;;;22.07;15.63;;;;;;;5.07;100.00;102660.84;1820860;78;21359;-87
2021/03/30 07:32:22;;;;;;;15.15;10.88;;;;;;;5.20;100.00;102668.76;1813263;78;21540;-88
2021/03/30 07:35:00;;;;;;;15.15;11.10;;;;;;;5.25;100.00;102664.34;1811793;77;21076;-90
2021/03/30 07:37:51;;;;;;;16.05;11.20;;;;;;;5.28;100.00;102664.30;1795453;78;21577;-89
2021/03/30 07:40:26;;;;;;;;;;;;;;;5.39;100.00;102659.36;1801241;78;21163;-88
2021/03/30 07:42:56;;;;;;;14.28;10.93;;;;;;;5.45;100.00;102666.98;1787944;79;21481;-88
2021/03/30 07:45:29;;;;;;;49.65;25.80;;;;;;;5.49;100.00;102673.34;1809271;78;21151;-87
2021/03/30 07:47:59;;;;;;;13.55;11.00;;;;;;;5.52;100.00;102666.83;1821215;78;21100;-89
2021/03/30 07:54:13;;;;;;;60.70;35.33;;;;;;;5.67;100.00;102662.21;1819077;78;21150;-87
2021/03/30 07:56:48;;;;;;;14.03;10.93;;;;;;;5.74;100.00;102665.07;1787101;79;21366;-89
2021/03/30 07:59:48;;;;;;;10.43;9.23;;;;;;;5.77;93.63;102668.86;1787143;79;21164;-88
2021/03/30 08:02:21;;;;;;;19.35;12.78;;;;;;;5.64;89.26;102661.84;1748445;80;21155;-88
2021/03/30 08:05:19;;;;;;;10.88;9.38;;;;;;;5.65;90.92;102663.52;1814326;77;22204;-88
2021/03/30 08:07:58;;;;;;;12.98;10.05;;;;;;;5.65;90.92;102663.52;1797802;79;21131;-88
2021/03/30 08:10:37;;;;;;;13.20;10.00;;;;;;;5.72;92.07;102666.83;1787122;79;22869;-88
2021/03/30 08:13:35;;;;;;;13.68;9.58;;;;;;;5.79;92.13;102660.64;1791139;79;21169;-87
2021/03/30 08:16:10;;;;;;;15.15;10.10;;;;;;;5.95;92.05;102671.50;1773475;79;21147;-88
2021/03/30 08:18:43;;;;;;;10.88;8.85;;;;;;;6.20;90.71;102667.09;1798638;79;21171;-88
2021/03/30 08:21:17;;;;;;;10.88;9.60;;;;;;;6.41;87.23;102666.14;1784560;80;21140;-88
2021/03/30 08:24:04;;;;;;;13.38;10.80;;;;;;;6.56;84.45;102668.80;1784380;80;21202;-88
2021/03/30 08:26:37;;;;;;;13.03;10.95;;;;;;;6.70;88.17;102669.72;1728368;82;21498;-88
2021/03/30 08:29:11;;;;;;;60.95;32.42;;;;;;;6.94;85.53;102663.06;1721579;81;21209;-88
2021/03/30 08:31:47;;;;;;;65.22;34.67;;;;;;;7.12;82.52;102659.11;1713598;81;21604;-88
2021/03/30 08:34:22;;;;;;;13.10;9.80;;;;;;;7.18;83.55;102660.22;1747940;82;21124;-88
2021/03/30 08:36:56;;;;;;;17.98;12.60;;;;;;;7.25;79.08;102655.27;1758921;80;21565;-89
2021/03/30 08:39:29;;;;;;;13.35;10.03;;;;;;;7.26;75.72;102649.66;1721608;82;21620;-88
2021/03/30 08:42:12;;;;;;;9.10;8.10;;;;;;;7.14;72.67;102656.03;1749621;82;21124;-88
2021/03/30 08:44:50;;;;;;;8.53;7.62;;;;;;;6.98;72.58;102649.58;1738419;81;21563;-89
2021/03/30 08:47:40;;;;;;;30.23;16.97;;;;;;;6.92;72.79;102647.57;1734696;81;21150;-88
2021/03/30 08:50:31;;;;;;;23.70;13.28;;;;;;;7.01;76.13;102644.33;1716840;81;21203;-88
2021/03/30 08:53:00;;;;;;;14.60;10.10;;;;;;;7.15;78.80;102646.51;1724652;81;21183;-89
2021/03/30 08:55:34;;;;;;;9.83;8.43;;;;;;;7.38;77.58;102636.79;1745568;82;21133;-89
2021/03/30 08:58:02;;;;;;;13.28;8.70;;;;;;;7.59;75.53;102635.30;1745672;82;21167;-89
2021/03/30 09:00:31;;;;;;;8.43;7.40;;;;;;;7.78;73.49;102637.31;1741949;81;21184;-89
2021/03/30 09:03:08;;;;;;;12.80;8.25;;;;;;;7.86;70.52;102637.50;1759563;79;21223;-88
2021/03/30 09:05:40;;;;;;;8.43;7.50;;;;;;;7.89;66.28;102641.73;1715793;83;21575;-89
2021/03/30 09:08:10;;;;;;;8.95;7.60;;;;;;;7.79;63.57;102646.37;1729592;81;21190;-89
2021/03/30 09:10:41;;;;;;;12.23;8.23;;;;;;;7.59;63.39;102643.08;1752828;81;21567;-88
2021/03/30 09:13:17;;;;;;;8.45;7.65;;;;;;;7.46;63.00;102641.73;1741451;81;21161;-89
2021/03/30 09:15:55;;;;;;;9.80;7.55;;;;;;;7.31;65.45;102636.56;1746352;81;21159;-90
2021/03/30 09:18:55;;;;;;;9.03;8.13;;;;;;;7.37;65.49;102637.68;1739845;81;21144;-90
2021/03/30 09:21:29;;;;;;;9.75;8.00;;;;;;;7.56;69.68;102637.98;1729837;81;21552;-90
2021/03/30 09:24:01;;;;;;;8.38;7.08;;;;;;;7.81;64.58;102640.66;1765228;79;21104;-87
2021/03/30 09:26:57;;;;;;;7.42;6.72;;;;;;;7.87;64.28;102637.03;1774373;80;21136;-87
2021/03/30 09:29:26;;;;;;;8.20;7.08;;;;;;;7.85;62.77;102635.80;1781427;80;21202;-89
2021/03/30 09:31:55;;;;;;;8.95;8.03;;;;;;;7.74;59.22;102635.27;1780694;79;21120;-89
2021/03/30 09:34:27;;;;;;;10.28;8.08;;;;;;;7.78;64.21;102639.48;1786701;79;21135;-89
2021/03/30 09:37:00;;;;;;;7.62;6.80;;;;;;;7.97;65.15;102633.72;1781317;80;21127;-89
2021/03/30 09:39:35;;;;;;;10.78;7.72;;;;;;;8.04;61.90;102633.92;1780436;80;21158;-88
2021/03/30 09:42:09;;;;;;;8.98;8.05;;;;;;;7.99;62.10;102631.91;1776008;80;22299;-89
2021/03/30 09:44:45;;;;;;;8.55;7.12;;;;;;;7.82;59.50;102631.16;1743565;81;21634;-88
2021/03/30 09:47:15;;;;;;;10.30;8.00;;;;;;;7.58;60.32;102633.61;1780787;79;21184;-88
2021/03/30 09:49:52;;;;;;;9.28;7.37;;;;;;;7.41;61.89;102631.53;1777335;80;21131;-88
2021/03/30 09:52:22;;;;;;;7.53;6.70;;;;;;;7.33;61.12;102636.09;1780809;79;21167;-88
2021/03/30 09:54:50;;;;;;;8.33;6.42;;;;;;;7.23;60.08;102640.23;1779311;80;21207;-88
2021/03/30 09:57:27;;;;;;;11.55;9.00;;;;;;;7.23;61.84;102635.05;1762640;80;21536;-88
2021/03/30 09:59:54;;;;;;;24.37;14.63;;;;;;;7.32;62.68;102633.92;1757366;80;21138;-89
2021/03/30 10:02:35;;;;;;;10.55;7.47;;;;;;;7.56;64.58;102638.84;1781016;79;21166;-89
2021/03/30 10:05:10;;;;;;;9.73;7.35;;;;;;;7.74;61.86;102633.54;1781449;79;21607;-89
2021/03/30 10:07:40;;;;;;;7.45;6.65;;;;;;;7.94;65.81;102626.02;1785475;79;22370;-89
2021/03/30 10:10:17;;;;;;;7.33;6.53;;;;;;;8.13;60.12;102634.06;1804525;79;21599;-88
2021/03/30 10:13:00;;;;;;;10.65;7.58;;;;;;;8.07;57.10;102632.51;1795150;78;21061;-89
2021/03/30 10:15:40;;;;;;;6.97;6.10;;;;;;;7.86;58.76;102637.50;1779625;79;21148;-88
2021/03/30 10:18:10;;;;;;;6.37;5.53;;;;;;;7.68;57.57;102640.22;1804682;79;21151;-89
2021/03/30 10:20:52;;;;;;;;;;;;;;;7.58;59.21;102633.61;1807284;79;21575;-89
2021/03/30 10:23:29;;;;;;;7.97;6.05;;;;;;;7.50;57.32;102635.12;1783861;78;20267;-90
2021/03/30 10:26:16;;;;;;;7.92;6.65;;;;;;;7.41;57.88;102634.13;1820409;78;21075;-90
2021/03/30 10:28:57;;;;;;;6.83;5.87;;;;;;;7.47;59.47;102633.93;1820632;78;21123;-88
2021/03/30 10:31:49;;;;;;;7.90;6.35;;;;;;;7.66;55.88;102629.47;1820982;78;21139;-89
2021/03/30 10:34:31;;;;;;;8.33;6.77;;;;;;;7.88;55.58;102625.77;1778146;78;21152;-89
2021/03/30 10:37:14;;;;;;;6.67;6.08;;;;;;;8.17;54.61;102619.64;1772774;79;21657;-88
2021/03/30 10:39:45;;;;;;;7.17;6.47;;;;;;;8.28;54.45;102617.98;1773073;81;21190;-88
2021/03/30 10:42:20;;;;;;;8.20;7.03;;;;;;;8.25;52.51;102621.12;1760398;78;21156;-88
2021/03/30 10:44:57;;;;;;;7.65;6.95;;;;;;;8.15;53.09;102622.73;1771036;81;21112;-89
2021/03/30 10:47:37;;;;;;;7.95;7.15;;;;;;;8.08;53.96;102626.42;1771972;81;21369;-89
2021/03/30 10:50:13;;;;;;;13.50;11.22;;;;;;;8.13;53.15;102616.73;1772626;80;21644;-89
2021/03/30 10:52:44;;;;;;;9.15;7.78;;;;;;;8.27;54.80;102621.47;1773057;78;21181;-88
2021/03/30 10:55:17;;;;;;;7.95;7.15;;;;;;;8.45;52.72;102619.16;1772891;81;21547;-89
2021/03/30 10:57:47;;;;;;;7.15;6.53;;;;;;;8.40;50.65;102618.02;1772981;80;21563;-89
2021/03/30 11:00:18;;;;;;;7.78;6.95;;;;;;;8.24;50.27;102627.22;1772982;81;22124;-89
2021/03/30 11:02:48;;;;;;;7.97;7.20;;;;;;;8.02;49.88;102617.08;1754126;78;21214;-89
2021/03/30 11:05:18;;;;;;;8.33;7.53;;;;;;;7.88;51.32;102617.98;1755958;80;21210;-89
2021/03/30 11:07:48;;;;;;;8.15;6.90;;;;;;;7.90;52.33;102615.73;1762280;80;21159;-89
2021/03/30 11:10:17;;;;;;;13.70;9.55;;;;;;;8.08;50.08;102620.40;1779817;80;21489;-88
2021/03/30 11:12:47;;;;;;;18.55;13.58;;;;;;;8.18;51.50;102609.66;1760351;79;21650;-89
2021/03/30 11:15:16;;;;;;;13.55;11.88;;;;;;;8.28;51.07;102614.09;1750763;80;21108;-89
2021/03/30 11:17:48;;;;;;;10.80;8.23;;;;;;;8.32;48.87;102614.83;1751502;80;21144;-88
2021/03/30 11:20:18;;;;;;;14.75;11.40;;;;;;;8.22;48.55;102610.41;1769955;80;21539;-88
2021/03/30 11:22:49;;;;;;;11.38;9.83;;;;;;;8.11;48.61;102613.80;1737775;80;21535;-87
2021/03/30 11:25:17;;;;;;;9.53;8.55;;;;;;;7.99;48.72;102612.02;1772741;80;21186;-88
2021/03/30 11:27:50;;;;;;;13.80;12.30;;;;;;;7.87;48.33;102604.18;1765818;80;21135;-88
2021/03/30 11:30:21;;;;;;;;;;;;;;;7.83;49.44;102607.75;1768637;80;21193;-88
2021/03/30 11:32:53;;;;;;;11.12;8.80;;;;;;;7.89;49.60;102601.06;1764541;78;20217;-88
2021/03/30 11:35:21;;;;;;;9.83;8.63;;;;;;;7.99;50.10;102605.53;1758776;80;21464;-89
2021/03/30 11:38:04;;;;;;;9.15;8.35;;;;;;;8.04;49.66;102597.59;1762654;80;21374;-89
2021/03/30 11:40:25;;;;;;;10.58;9.48;;;;;;;8.12;48.51;102594.73;1747324;80;21615;-88
2021/03/30 11:42:53;;;;;;;98.15;61.33;;;;;;;8.14;49.14;102592.48;1756619;80;21230;-89
2021/03/30 11:48:54;;;;;;;18.45;14.58;;;;;;;8.30;50.03;102589.37;1755939;80;21191;-88
2021/03/30 11:51:24;;;;;;;9.10;8.20;;;;;;;8.40;48.15;102586.86;1748649;80;21231;-91
2021/03/30 11:53:56;;;;;;;9.05;8.25;;;;;;;8.43;47.32;102584.61;1775232;80;21131;-91
2021/03/30 11:56:53;;;;;;;10.18;8.63;;;;;;;8.41;46.71;102579.94;1765673;80;21144;-91
2021/03/30 11:59:53;;;;;;;12.58;9.70;;;;;;;8.41;47.70;102579.48;1781479;80;21140;-93
2021/03/30 12:02:21;;;;;;;13.38;11.30;;;;;;;8.47;47.57;102573.27;1776752;79;21162;-92
2021/03/30 12:08:17;;;;;;;14.25;9.30;;;;;;;8.30;49.10;102582.45;1813613;78;21090;-92
2021/03/30 12:15:11;;;;;;;21.62;14.85;;;;;;;8.29;50.25;102572.95;1795582;80;21168;-92
2021/03/30 12:21:52;;;;;;;10.90;9.80;;;;;;;8.37;48.16;102574.01;1795932;78;21166;-92
2021/03/30 12:24:48;;;;;;;12.25;10.55;;;;;;;8.18;48.37;102569.44;1795543;79;21181;-92
2021/03/30 12:27:23;;;;;;;11.83;10.13;;;;;;;8.11;48.97;102571.84;1795398;80;21076;-92
2021/03/30 12:29:51;;;;;;;12.98;9.98;;;;;;;8.09;48.09;102572.80;1795243;80;21138;-91
2021/03/30 12:32:23;;;;;;;12.15;9.15;;;;;;;8.01;49.41;102567.39;1810207;78;21589;-91
2021/03/30 12:34:53;;;;;;;17.30;9.33;;;;;;;8.02;48.90;102572.14;1764690;80;21552;-92
2021/03/30 12:37:23;;;;;;;10.43;8.58;;;;;;;7.95;48.72;102567.59;1813140;78;21528;-92
2021/03/30 12:44:17;;;;;;;9.03;8.13;;;;;;;7.86;49.30;102564.86;1763045;80;21547;-91
2021/03/30 12:46:45;;;;;;;;;;;;;;;7.75;47.67;102563.05;1755702;80;21162;-91
2021/03/30 12:49:45;;;;;;;11.25;8.78;;;;;;;7.64;47.84;102558.67;1757560;81;21266;-91